sensor_id;sensor_type;location;lat;lon;timestamp;pressure;altitude;pressure_sealevel;temperature;humidity
42511;BME280;28141;51.120;17.114;2023-05-10T00:01:01;101712.23;;;26.51;28.74
42511;BME280;28141;51.120;17.114;2023-05-10T00:04:16;101709.31;;;26.46;28.96
42511;BME280;28141;51.120;17.114;2023-05-10T00:07:29;101707.61;;;26.45;28.68
42511;BME280;28141;51.120;17.114;2023-05-10T00:11:10;101711.68;;;26.42;28.80
42511;BME280;28141;51.120;17.114;2023-05-10T00:14:23;101700.65;;;26.36;28.73
42511;BME280;28141;51.120;17.114;2023-05-10T00:17:37;101703.87;;;26.33;28.85
42511;BME280;28141;51.120;17.114;2023-05-10T00:20:51;101700.69;;;26.29;28.93
42511;BME280;28141;51.120;17.114;2023-05-10T00:24:32;101700.09;;;26.27;28.95
42511;BME280;28141;51.120;17.114;2023-05-10T00:27:45;101697.95;;;26.23;29.14
42511;BME280;28141;51.120;17.114;2023-05-10T00:30:59;101702.24;;;26.18;29.04
42511;BME280;28141;51.120;17.114;2023-05-10T00:34:13;101692.69;;;26.14;28.90
42511;BME280;28141;51.120;17.114;2023-05-10T00:37:56;101698.67;;;26.11;29.08
42511;BME280;28141;51.120;17.114;2023-05-10T00:41:10;101689.09;;;26.07;29.31
42511;BME280;28141;51.120;17.114;2023-05-10T00:44:24;101690.20;;;26.06;29.27
42511;BME280;28141;51.120;17.114;2023-05-10T00:47:37;101684.23;;;26.03;29.24
42511;BME280;28141;51.120;17.114;2023-05-10T00:51:19;101682.34;;;25.97;29.19
42511;BME280;28141;51.120;17.114;2023-05-10T00:54:33;101686.45;;;25.94;28.69
42511;BME280;28141;51.120;17.114;2023-05-10T00:57:48;101680.27;;;25.92;29.35
42511;BME280;28141;51.120;17.114;2023-05-10T01:01:02;101676.23;;;25.88;29.03
42511;BME280;28141;51.120;17.114;2023-05-10T01:04:43;101677.13;;;25.82;29.35
42511;BME280;28141;51.120;17.114;2023-05-10T01:07:57;101671.58;;;25.82;29.61
42511;BME280;28141;51.120;17.114;2023-05-10T01:11:10;101673.31;;;25.76;29.44
42511;BME280;28141;51.120;17.114;2023-05-10T01:14:25;101674.01;;;25.72;29.20
42511;BME280;28141;51.120;17.114;2023-05-10T01:18:08;101677.86;;;25.71;29.48
42511;BME280;28141;51.120;17.114;2023-05-10T01:28:58;101675.56;;;25.55;29.69
42511;BME280;28141;51.120;17.114;2023-05-10T01:35:47;101673.91;;;25.47;30.03
42511;BME280;28141;51.120;17.114;2023-05-10T01:39:44;101674.32;;;25.51;29.75
42511;BME280;28141;51.120;17.114;2023-05-10T01:42:56;101681.58;;;25.52;29.63
42511;BME280;28141;51.120;17.114;2023-05-10T01:46:24;101681.58;;;25.52;29.45
42511;BME280;28141;51.120;17.114;2023-05-10T01:50:10;101685.00;;;25.47;29.72
42511;BME280;28141;51.120;17.114;2023-05-10T01:53:29;101680.31;;;25.48;29.54
42511;BME280;28141;51.120;17.114;2023-05-10T01:56:44;101679.68;;;25.45;29.49
42511;BME280;28141;51.120;17.114;2023-05-10T02:00:02;101670.94;;;25.42;29.90
42511;BME280;28141;51.120;17.114;2023-05-10T02:03:44;101669.27;;;25.41;29.78
42511;BME280;28141;51.120;17.114;2023-05-10T02:06:58;101670.98;;;25.35;29.70
42511;BME280;28141;51.120;17.114;2023-05-10T02:10:13;101663.30;;;25.37;29.94
42511;BME280;28141;51.120;17.114;2023-05-10T02:13:29;101664.16;;;25.38;30.05
42511;BME280;28141;51.120;17.114;2023-05-10T02:17:12;101663.57;;;25.29;29.85
42511;BME280;28141;51.120;17.114;2023-05-10T02:20:29;101664.44;;;25.23;30.20
42511;BME280;28141;51.120;17.114;2023-05-10T02:23:45;101659.09;;;25.28;29.61
42511;BME280;28141;51.120;17.114;2023-05-10T02:27:00;101653.98;;;25.25;29.85
42511;BME280;28141;51.120;17.114;2023-05-10T02:30:43;101653.98;;;25.25;29.91
42511;BME280;28141;51.120;17.114;2023-05-10T02:33:57;101657.02;;;25.17;30.00
42511;BME280;28141;51.120;17.114;2023-05-10T02:37:14;101656.97;;;25.24;29.82
42511;BME280;28141;51.120;17.114;2023-05-10T02:40:30;101661.45;;;25.25;29.82
42511;BME280;28141;51.120;17.114;2023-05-10T02:44:11;101656.55;;;25.20;29.98
42511;BME280;28141;51.120;17.114;2023-05-10T02:47:28;101646.55;;;25.19;29.88
42511;BME280;28141;51.120;17.114;2023-05-10T02:50:44;101654.23;;;25.17;30.10
42511;BME280;28141;51.120;17.114;2023-05-10T02:54:10;101651.91;;;25.14;30.20
42511;BME280;28141;51.120;17.114;2023-05-10T02:57:56;101651.27;;;25.12;30.05
42511;BME280;28141;51.120;17.114;2023-05-10T03:01:12;101653.87;;;25.07;30.23
42511;BME280;28141;51.120;17.114;2023-05-10T03:04:26;101650.24;;;25.06;30.13
42511;BME280;28141;51.120;17.114;2023-05-10T03:07:40;101652.80;;;25.08;29.97
42511;BME280;28141;51.120;17.114;2023-05-10T03:11:28;101660.91;;;25.03;30.12
42511;BME280;28141;51.120;17.114;2023-05-10T03:14:53;101653.66;;;25.02;30.50
42511;BME280;28141;51.120;17.114;2023-05-10T03:18:20;101655.79;;;25.06;30.25
42511;BME280;28141;51.120;17.114;2023-05-10T03:22:04;101661.54;;;25.05;30.13
42511;BME280;28141;51.120;17.114;2023-05-10T03:25:22;101653.87;;;25.07;30.13
42511;BME280;28141;51.120;17.114;2023-05-10T03:28:37;101661.51;;;25.12;30.16
42511;BME280;28141;51.120;17.114;2023-05-10T03:31:52;101645.08;;;25.10;30.02
42511;BME280;28141;51.120;17.114;2023-05-10T03:35:32;101653.66;;;25.02;30.11
42511;BME280;28141;51.120;17.114;2023-05-10T03:38:46;101655.79;;;25.06;29.91
42511;BME280;28141;51.120;17.114;2023-05-10T03:42:00;101651.09;;;25.07;29.95
42511;BME280;28141;51.120;17.114;2023-05-10T03:45:14;101641.70;;;25.08;30.28
42511;BME280;28141;51.120;17.114;2023-05-10T03:48:55;101648.53;;;25.05;30.09
42511;BME280;28141;51.120;17.114;2023-05-10T03:52:08;101651.52;;;25.04;30.09
42511;BME280;28141;51.120;17.114;2023-05-10T03:55:23;101650.63;;;25.10;30.39
42511;BME280;28141;51.120;17.114;2023-05-10T03:58:37;101650.41;;;25.18;30.03
42511;BME280;28141;51.120;17.114;2023-05-10T04:02:17;101647.21;;;25.15;30.00
42511;BME280;28141;51.120;17.114;2023-05-10T04:05:31;101648.48;;;25.19;29.87
42511;BME280;28141;51.120;17.114;2023-05-10T04:08:45;101642.46;;;25.22;30.17
42511;BME280;28141;51.120;17.114;2023-05-10T04:11:59;101640.97;;;25.26;29.55
42511;BME280;28141;51.120;17.114;2023-05-10T04:15:41;101656.95;;;25.30;29.93
42511;BME280;28141;51.120;17.114;2023-05-10T04:18:56;101645.61;;;25.32;30.24
42511;BME280;28141;51.120;17.114;2023-05-10T04:22:10;101644.10;;;25.36;29.63
42511;BME280;28141;51.120;17.114;2023-05-10T04:25:24;101652.38;;;25.42;30.10
42511;BME280;28141;51.120;17.114;2023-05-10T04:29:05;101644.05;;;25.42;29.77
42511;BME280;28141;51.120;17.114;2023-05-10T04:32:18;101649.80;;;25.48;29.76
42511;BME280;28141;51.120;17.114;2023-05-10T04:35:34;101651.07;;;25.52;29.74
42511;BME280;28141;51.120;17.114;2023-05-10T04:38:48;101637.14;;;25.58;29.70
42511;BME280;28141;51.120;17.114;2023-05-10T04:42:29;101637.98;;;25.59;29.59
42511;BME280;28141;51.120;17.114;2023-05-10T04:45:42;101639.05;;;25.58;29.25
42511;BME280;28141;51.120;17.114;2023-05-10T04:48:56;101638.81;;;25.66;29.54
42511;BME280;28141;51.120;17.114;2023-05-10T04:52:10;101643.48;;;25.72;29.42
42511;BME280;28141;51.120;17.114;2023-05-10T04:55:51;101652.32;;;25.87;29.45
42511;BME280;28141;51.120;17.114;2023-05-10T04:59:04;101644.46;;;25.84;29.05
42511;BME280;28141;51.120;17.114;2023-05-10T05:02:18;101639.91;;;25.90;29.59
42511;BME280;28141;51.120;17.114;2023-05-10T05:05:33;101639.59;;;26.04;29.25
42511;BME280;28141;51.120;17.114;2023-05-10T05:09:13;101656.41;;;26.09;29.21
42511;BME280;28141;51.120;17.114;2023-05-10T05:12:27;101642.29;;;26.11;29.22
42511;BME280;28141;51.120;17.114;2023-05-10T05:15:40;101638.36;;;26.18;28.98
42511;BME280;28141;51.120;17.114;2023-05-10T05:18:54;101642.62;;;26.21;29.09
42511;BME280;28141;51.120;17.114;2023-05-10T05:22:36;101642.30;;;26.36;28.85
42511;BME280;28141;51.120;17.114;2023-05-10T05:25:53;101633.67;;;26.44;28.48
42511;BME280;28141;51.120;17.114;2023-05-10T05:29:07;101640.08;;;26.44;28.25
42511;BME280;28141;51.120;17.114;2023-05-10T05:32:22;101637.52;;;26.43;28.61
42511;BME280;28141;51.120;17.114;2023-05-10T05:36:04;101631.66;;;26.51;28.18
42511;BME280;28141;51.120;17.114;2023-05-10T05:39:18;101635.01;;;26.60;27.74
42511;BME280;28141;51.120;17.114;2023-05-10T05:42:32;101632.77;;;26.68;27.69
42511;BME280;28141;51.120;17.114;2023-05-10T05:45:46;101627.66;;;26.65;27.64
42511;BME280;28141;51.120;17.114;2023-05-10T05:49:27;101640.02;;;26.69;27.62
42511;BME280;28141;51.120;17.114;2023-05-10T05:52:40;101654.06;;;26.74;27.55
42511;BME280;28141;51.120;17.114;2023-05-10T05:55:56;101636.08;;;26.77;27.54
42511;BME280;28141;51.120;17.114;2023-05-10T05:59:11;101638.31;;;26.86;27.49
42511;BME280;28141;51.120;17.114;2023-05-10T06:02:25;101623.04;;;26.96;27.35
42511;BME280;28141;51.120;17.114;2023-05-10T06:06:05;101639.72;;;26.96;27.24
42511;BME280;28141;51.120;17.114;2023-05-10T06:09:19;101631.31;;;27.02;27.00
42511;BME280;28141;51.120;17.114;2023-05-10T06:12:34;101634.23;;;27.07;27.00
42511;BME280;28141;51.120;17.114;2023-05-10T06:15:49;101633.77;;;27.10;26.98
42511;BME280;28141;51.120;17.114;2023-05-10T06:19:29;101640.30;;;27.16;27.56
42511;BME280;28141;51.120;17.114;2023-05-10T06:22:43;101638.66;;;27.26;27.76
42511;BME280;28141;51.120;17.114;2023-05-10T06:25:57;101646.55;;;27.30;27.69
42511;BME280;28141;51.120;17.114;2023-05-10T06:29:10;101640.64;;;27.38;27.55
42511;BME280;28141;51.120;17.114;2023-05-10T06:32:50;101643.35;;;27.44;27.77
42511;BME280;28141;51.120;17.114;2023-05-10T06:36:05;101634.03;;;27.50;27.51
42511;BME280;28141;51.120;17.114;2023-05-10T06:39:19;101626.60;;;27.63;27.91
42511;BME280;28141;51.120;17.114;2023-05-10T06:42:33;101626.26;;;27.71;28.22
42511;BME280;28141;51.120;17.114;2023-05-10T06:46:13;101624.09;;;27.73;27.58
42511;BME280;28141;51.120;17.114;2023-05-10T06:49:27;101622.64;;;27.82;27.41
42511;BME280;28141;51.120;17.114;2023-05-10T06:52:41;101633.70;;;27.88;27.16
42511;BME280;28141;51.120;17.114;2023-05-10T06:55:55;101624.60;;;27.93;27.54
42511;BME280;28141;51.120;17.114;2023-05-10T06:59:35;101632.02;;;27.99;26.88
42511;BME280;28141;51.120;17.114;2023-05-10T07:02:49;101623.42;;;28.01;26.04
42511;BME280;28141;51.120;17.114;2023-05-10T07:06:04;101624.39;;;28.06;27.10
42511;BME280;28141;51.120;17.114;2023-05-10T07:09:20;101616.27;;;28.16;26.48
42511;BME280;28141;51.120;17.114;2023-05-10T07:13:00;101624.18;;;28.19;26.44
42511;BME280;28141;51.120;17.114;2023-05-10T07:16:15;101621.77;;;28.23;26.73
42511;BME280;28141;51.120;17.114;2023-05-10T07:19:29;101617.29;;;28.22;26.07
42511;BME280;28141;51.120;17.114;2023-05-10T07:22:45;101610.12;;;28.38;26.96
42511;BME280;28141;51.120;17.114;2023-05-10T07:26:25;101611.81;;;28.39;26.64
42511;BME280;28141;51.120;17.114;2023-05-10T07:29:40;101600.57;;;28.33;27.03
42511;BME280;28141;51.120;17.114;2023-05-10T07:32:54;101601.15;;;28.36;27.13
42511;BME280;28141;51.120;17.114;2023-05-10T07:36:08;101607.46;;;28.43;26.98
42511;BME280;28141;51.120;17.114;2023-05-10T07:39:48;101595.45;;;28.54;27.33
42511;BME280;28141;51.120;17.114;2023-05-10T07:43:02;101580.15;;;28.56;27.36
42511;BME280;28141;51.120;17.114;2023-05-10T07:46:16;101587.91;;;28.66;27.09
42511;BME280;28141;51.120;17.114;2023-05-10T07:49:32;101586.66;;;28.74;26.93
42511;BME280;28141;51.120;17.114;2023-05-10T07:53:12;101592.01;;;28.75;27.16
42511;BME280;28141;51.120;17.114;2023-05-10T07:56:31;101582.55;;;28.88;27.11
42511;BME280;28141;51.120;17.114;2023-05-10T07:59:46;101590.07;;;28.87;27.21
42511;BME280;28141;51.120;17.114;2023-05-10T08:03:00;101581.70;;;28.87;27.03
42511;BME280;28141;51.120;17.114;2023-05-10T08:06:40;101583.36;;;28.88;27.09
42511;BME280;28141;51.120;17.114;2023-05-10T08:09:55;101583.73;;;28.92;27.11
42511;BME280;28141;51.120;17.114;2023-05-10T08:13:08;101581.79;;;28.92;27.04
42511;BME280;28141;51.120;17.114;2023-05-10T08:16:22;101579.69;;;28.99;27.41
42511;BME280;28141;51.120;17.114;2023-05-10T08:20:04;101583.09;;;29.01;27.01
42511;BME280;28141;51.120;17.114;2023-05-10T08:23:20;101580.74;;;29.10;27.21
42511;BME280;28141;51.120;17.114;2023-05-10T08:26:34;101576.00;;;29.11;27.31
42511;BME280;28141;51.120;17.114;2023-05-10T08:29:48;101567.75;;;29.16;27.08
42511;BME280;28141;51.120;17.114;2023-05-10T08:33:02;101582.30;;;29.18;26.94
42511;BME280;28141;51.120;17.114;2023-05-10T08:36:42;101576.20;;;29.21;26.82
42511;BME280;28141;51.120;17.114;2023-05-10T08:39:56;101582.37;;;29.23;27.08
42511;BME280;28141;51.120;17.114;2023-05-10T08:43:12;101573.76;;;29.24;26.82
42511;BME280;28141;51.120;17.114;2023-05-10T08:46:29;101575.81;;;29.29;27.33
42511;BME280;28141;51.120;17.114;2023-05-10T08:50:11;101574.20;;;29.33;27.12
42511;BME280;28141;51.120;17.114;2023-05-10T08:53:26;101567.65;;;29.39;27.53
42511;BME280;28141;51.120;17.114;2023-05-10T08:56:42;101567.13;;;29.42;27.14
42511;BME280;28141;51.120;17.114;2023-05-10T08:59:56;101565.78;;;29.45;26.81
42511;BME280;28141;51.120;17.114;2023-05-10T09:03:38;101554.98;;;29.48;27.02
42511;BME280;28141;51.120;17.114;2023-05-10T09:06:52;101558.69;;;29.54;26.93
42511;BME280;28141;51.120;17.114;2023-05-10T09:10:07;101564.12;;;29.60;27.31
42511;BME280;28141;51.120;17.114;2023-05-10T09:13:23;101563.63;;;29.63;26.66
42511;BME280;28141;51.120;17.114;2023-05-10T09:17:04;101562.59;;;29.69;26.44
42511;BME280;28141;51.120;17.114;2023-05-10T09:20:18;101563.70;;;29.68;26.52
42511;BME280;28141;51.120;17.114;2023-05-10T09:23:32;101570.23;;;29.74;26.64
42511;BME280;28141;51.120;17.114;2023-05-10T09:26:48;101570.23;;;29.74;26.29
42511;BME280;28141;51.120;17.114;2023-05-10T09:30:03;101563.80;;;29.73;27.11
42511;BME280;28141;51.120;17.114;2023-05-10T09:33:18;101559.73;;;29.81;26.90
42511;BME280;28141;51.120;17.114;2023-05-10T09:36:33;101567.86;;;29.83;26.49
42511;BME280;28141;51.120;17.114;2023-05-10T09:40:20;101572.34;;;29.84;26.82
42511;BME280;28141;51.120;17.114;2023-05-10T09:43:38;101575.20;;;29.89;27.18
42511;BME280;28141;51.120;17.114;2023-05-10T09:46:52;101568.02;;;29.93;26.85
42511;BME280;28141;51.120;17.114;2023-05-10T09:50:09;101565.81;;;29.95;26.60
42511;BME280;28141;51.120;17.114;2023-05-10T09:57:22;101557.02;;;30.03;26.78
42511;BME280;28141;51.120;17.114;2023-05-10T10:00:39;101547.95;;;30.12;27.41
42511;BME280;28141;51.120;17.114;2023-05-10T10:04:20;101558.68;;;30.21;26.76
42511;BME280;28141;51.120;17.114;2023-05-10T10:07:34;101550.64;;;30.24;26.98
42511;BME280;28141;51.120;17.114;2023-05-10T10:10:49;101544.84;;;30.31;27.09
42511;BME280;28141;51.120;17.114;2023-05-10T10:14:05;101552.22;;;30.37;26.74
42511;BME280;28141;51.120;17.114;2023-05-10T10:17:45;101537.14;;;30.38;26.27
42511;BME280;28141;51.120;17.114;2023-05-10T10:23:51;101538.79;;;30.56;25.52
42511;BME280;28141;51.120;17.114;2023-05-10T10:27:15;101530.15;;;30.57;26.53
42511;BME280;28141;51.120;17.114;2023-05-10T10:30:38;101518.96;;;30.57;26.13
42511;BME280;28141;51.120;17.114;2023-05-10T10:34:28;101521.50;;;30.59;26.04
42511;BME280;28141;51.120;17.114;2023-05-10T10:37:47;101524.04;;;30.60;26.56
42511;BME280;28141;51.120;17.114;2023-05-10T10:41:10;101526.29;;;30.63;26.06
42511;BME280;28141;51.120;17.114;2023-05-10T10:48:22;101508.23;;;30.71;25.75
42511;BME280;28141;51.120;17.114;2023-05-10T10:51:39;101522.84;;;30.78;26.24
42511;BME280;28141;51.120;17.114;2023-05-10T10:55:20;101522.96;;;30.88;25.77
42511;BME280;28141;51.120;17.114;2023-05-10T10:58:49;101521.00;;;30.89;26.29
42511;BME280;28141;51.120;17.114;2023-05-10T11:02:06;101524.16;;;30.97;26.14
42511;BME280;28141;51.120;17.114;2023-05-10T11:05:50;101509.40;;;31.02;25.32
42511;BME280;28141;51.120;17.114;2023-05-10T11:09:10;101518.09;;;31.05;25.28
42511;BME280;28141;51.120;17.114;2023-05-10T11:12:24;101514.02;;;31.13;24.89
42511;BME280;28141;51.120;17.114;2023-05-10T11:15:39;101521.09;;;31.20;25.50
42511;BME280;28141;51.120;17.114;2023-05-10T11:19:20;101515.59;;;31.31;25.34
42511;BME280;28141;51.120;17.114;2023-05-10T11:26:00;101496.41;;;31.49;25.20
42511;BME280;28141;51.120;17.114;2023-05-10T11:29:45;101511.76;;;31.69;25.22
42511;BME280;28141;51.120;17.114;2023-05-10T11:32:59;101499.77;;;31.78;24.90
42511;BME280;28141;51.120;17.114;2023-05-10T11:36:20;101496.73;;;31.85;24.90
42511;BME280;28141;51.120;17.114;2023-05-10T11:39:34;101499.53;;;31.85;25.40
42511;BME280;28141;51.120;17.114;2023-05-10T11:43:14;101496.52;;;31.97;24.94
42511;BME280;28141;51.120;17.114;2023-05-10T11:46:28;101487.91;;;32.13;24.68
42511;BME280;28141;51.120;17.114;2023-05-10T11:49:46;101492.75;;;32.18;24.51
42511;BME280;28141;51.120;17.114;2023-05-10T11:53:00;101498.98;;;32.30;24.66
42511;BME280;28141;51.120;17.114;2023-05-10T11:56:41;101502.68;;;32.46;24.40
42511;BME280;28141;51.120;17.114;2023-05-10T11:59:57;101503.87;;;32.55;23.88
42511;BME280;28141;51.120;17.114;2023-05-10T12:03:11;101491.56;;;32.66;23.72
42511;BME280;28141;51.120;17.114;2023-05-10T12:06:30;101492.43;;;32.72;23.84
42511;BME280;28141;51.120;17.114;2023-05-10T12:10:12;101494.13;;;32.78;23.90
42511;BME280;28141;51.120;17.114;2023-05-10T12:13:31;101510.17;;;32.87;23.92
42511;BME280;28141;51.120;17.114;2023-05-10T12:16:47;101499.52;;;32.94;23.90
42511;BME280;28141;51.120;17.114;2023-05-10T12:23:59;101508.26;;;33.18;23.57
42511;BME280;28141;51.120;17.114;2023-05-10T12:27:14;101500.70;;;33.24;23.42
42511;BME280;28141;51.120;17.114;2023-05-10T12:30:29;101506.05;;;33.35;23.59
42511;BME280;28141;51.120;17.114;2023-05-10T12:33:44;101495.94;;;33.45;23.17
42511;BME280;28141;51.120;17.114;2023-05-10T12:37:28;101504.37;;;33.60;23.24
42511;BME280;28141;51.120;17.114;2023-05-10T12:40:42;101500.44;;;33.81;22.90
42511;BME280;28141;51.120;17.114;2023-05-10T12:43:56;101497.33;;;33.88;23.14
42511;BME280;28141;51.120;17.114;2023-05-10T12:47:10;101494.80;;;33.91;23.12
42511;BME280;28141;51.120;17.114;2023-05-10T12:50:50;101494.21;;;33.99;23.07
42511;BME280;28141;51.120;17.114;2023-05-10T12:54:04;101491.09;;;34.11;23.43
42511;BME280;28141;51.120;17.114;2023-05-10T12:57:19;101496.11;;;34.19;23.37
42511;BME280;28141;51.120;17.114;2023-05-10T13:00:34;101485.17;;;34.28;23.35
42511;BME280;28141;51.120;17.114;2023-05-10T13:04:14;101489.08;;;34.37;22.92
42511;BME280;28141;51.120;17.114;2023-05-10T13:07:28;101479.45;;;34.43;23.12
42511;BME280;28141;51.120;17.114;2023-05-10T13:10:42;101484.48;;;34.51;22.87
42511;BME280;28141;51.120;17.114;2023-05-10T13:13:56;101484.75;;;34.55;22.86
42511;BME280;28141;51.120;17.114;2023-05-10T13:17:36;101484.97;;;34.68;22.44
42511;BME280;28141;51.120;17.114;2023-05-10T13:20:54;101477.91;;;34.76;22.55
42511;BME280;28141;51.120;17.114;2023-05-10T13:24:09;101486.01;;;34.88;21.88
42511;BME280;28141;51.120;17.114;2023-05-10T13:27:24;101478.63;;;34.97;22.39
42511;BME280;28141;51.120;17.114;2023-05-10T13:31:04;101476.63;;;35.02;22.22
42511;BME280;28141;51.120;17.114;2023-05-10T13:34:19;101469.52;;;35.10;21.85
42511;BME280;28141;51.120;17.114;2023-05-10T13:37:34;101484.72;;;35.14;22.27
42511;BME280;28141;51.120;17.114;2023-05-10T13:40:51;101468.89;;;35.18;22.14
42511;BME280;28141;51.120;17.114;2023-05-10T13:44:32;101466.63;;;35.20;22.06
42511;BME280;28141;51.120;17.114;2023-05-10T13:47:47;101470.73;;;35.38;22.19
42511;BME280;28141;51.120;17.114;2023-05-10T13:51:01;101475.20;;;35.44;21.74
42511;BME280;28141;51.120;17.114;2023-05-10T13:54:15;101461.66;;;35.46;22.17
42511;BME280;28141;51.120;17.114;2023-05-10T13:57:59;101475.69;;;35.51;21.87
42511;BME280;28141;51.120;17.114;2023-05-10T14:01:13;101463.83;;;35.54;22.17
42511;BME280;28141;51.120;17.114;2023-05-10T14:04:27;101457.61;;;35.57;21.32
42511;BME280;28141;51.120;17.114;2023-05-10T14:07:41;101463.76;;;35.59;21.82
42511;BME280;28141;51.120;17.114;2023-05-10T14:11:23;101458.92;;;35.65;21.44
42511;BME280;28141;51.120;17.114;2023-05-10T14:14:37;101452.09;;;35.71;21.52
42511;BME280;28141;51.120;17.114;2023-05-10T14:17:52;101449.73;;;35.83;21.50
42511;BME280;28141;51.120;17.114;2023-05-10T14:21:06;101456.36;;;35.97;21.11
42511;BME280;28141;51.120;17.114;2023-05-10T14:24:48;101452.40;;;35.98;20.89
42511;BME280;28141;51.120;17.114;2023-05-10T14:28:03;101444.48;;;36.00;20.86
42511;BME280;28141;51.120;17.114;2023-05-10T14:31:17;101442.09;;;36.12;20.58
42511;BME280;28141;51.120;17.114;2023-05-10T14:34:33;101447.11;;;36.15;20.39
42511;BME280;28141;51.120;17.114;2023-05-10T14:38:16;101446.80;;;36.17;20.52
42511;BME280;28141;51.120;17.114;2023-05-10T14:41:30;101441.45;;;36.15;20.30
42511;BME280;28141;51.120;17.114;2023-05-10T14:44:44;101442.01;;;36.17;20.33
42511;BME280;28141;51.120;17.114;2023-05-10T14:47:58;101431.55;;;36.23;20.19
42511;BME280;28141;51.120;17.114;2023-05-10T14:51:41;101443.97;;;36.22;20.25
42511;BME280;28141;51.120;17.114;2023-05-10T14:54:55;101440.22;;;36.27;20.11
42511;BME280;28141;51.120;17.114;2023-05-10T14:58:12;101437.41;;;36.27;20.05
42511;BME280;28141;51.120;17.114;2023-05-10T15:01:25;101448.63;;;36.32;20.33
42511;BME280;28141;51.120;17.114;2023-05-10T15:05:09;101449.39;;;36.37;20.05
42511;BME280;28141;51.120;17.114;2023-05-10T15:08:23;101446.22;;;36.44;19.97
42511;BME280;28141;51.120;17.114;2023-05-10T15:11:38;101445.88;;;36.45;19.95
42511;BME280;28141;51.120;17.114;2023-05-10T15:14:52;101443.91;;;36.46;19.99
42511;BME280;28141;51.120;17.114;2023-05-10T15:18:35;101446.28;;;36.57;19.91
42511;BME280;28141;51.120;17.114;2023-05-10T15:21:49;101444.16;;;36.68;19.71
42511;BME280;28141;51.120;17.114;2023-05-10T15:25:03;101444.66;;;36.75;19.59
42511;BME280;28141;51.120;17.114;2023-05-10T15:28:17;101444.57;;;36.80;19.80
42511;BME280;28141;51.120;17.114;2023-05-10T15:32:01;101454.70;;;36.63;19.72
42511;BME280;28141;51.120;17.114;2023-05-10T15:35:16;101448.41;;;36.47;19.90
42511;BME280;28141;51.120;17.114;2023-05-10T15:38:31;101453.46;;;36.50;19.76
42511;BME280;28141;51.120;17.114;2023-05-10T15:41:46;101445.12;;;36.40;20.09
42511;BME280;28141;51.120;17.114;2023-05-10T15:45:29;101450.78;;;36.40;19.92
42511;BME280;28141;51.120;17.114;2023-05-10T15:48:43;101445.08;;;36.45;19.84
42511;BME280;28141;51.120;17.114;2023-05-10T15:51:57;101452.22;;;36.56;19.80
42511;BME280;28141;51.120;17.114;2023-05-10T15:55:11;101450.48;;;36.41;19.94
42511;BME280;28141;51.120;17.114;2023-05-10T15:58:54;101447.70;;;36.36;19.89
42511;BME280;28141;51.120;17.114;2023-05-10T16:02:09;101455.17;;;36.27;19.90
42511;BME280;28141;51.120;17.114;2023-05-10T16:05:26;101447.05;;;36.20;20.01
42511;BME280;28141;51.120;17.114;2023-05-10T16:08:45;101447.30;;;36.24;20.07
42511;BME280;28141;51.120;17.114;2023-05-10T16:12:29;101458.09;;;36.17;19.99
42511;BME280;28141;51.120;17.114;2023-05-10T16:15:44;101454.51;;;36.11;19.97
42511;BME280;28141;51.120;17.114;2023-05-10T16:18:58;101450.84;;;36.11;20.09
42511;BME280;28141;51.120;17.114;2023-05-10T16:22:15;101451.05;;;36.14;20.27
42511;BME280;28141;51.120;17.114;2023-05-10T16:25:58;101454.60;;;36.49;19.97
42511;BME280;28141;51.120;17.114;2023-05-10T16:29:12;101456.60;;;36.25;19.96
42511;BME280;28141;51.120;17.114;2023-05-10T16:32:26;101455.94;;;36.09;20.16
42511;BME280;28141;51.120;17.114;2023-05-10T16:35:40;101466.20;;;36.00;20.15
42511;BME280;28141;51.120;17.114;2023-05-10T16:39:23;101467.15;;;36.14;20.18
42511;BME280;28141;51.120;17.114;2023-05-10T16:42:36;101465.53;;;36.08;20.17
42511;BME280;28141;51.120;17.114;2023-05-10T16:45:50;101458.72;;;36.56;19.76
42511;BME280;28141;51.120;17.114;2023-05-10T16:49:05;101461.76;;;36.41;19.89
42511;BME280;28141;51.120;17.114;2023-05-10T16:52:47;101462.34;;;36.14;20.09
42511;BME280;28141;51.120;17.114;2023-05-10T16:56:02;101471.00;;;35.99;20.37
42511;BME280;28141;51.120;17.114;2023-05-10T16:59:16;101472.55;;;35.87;20.48
42511;BME280;28141;51.120;17.114;2023-05-10T17:02:30;101474.09;;;35.74;20.39
42511;BME280;28141;51.120;17.114;2023-05-10T17:06:13;101488.25;;;35.64;20.50
42511;BME280;28141;51.120;17.114;2023-05-10T17:09:27;101486.11;;;35.50;20.74
42511;BME280;28141;51.120;17.114;2023-05-10T17:12:42;101485.06;;;35.41;20.72
42511;BME280;28141;51.120;17.114;2023-05-10T17:15:56;101485.13;;;35.36;20.82
42511;BME280;28141;51.120;17.114;2023-05-10T17:19:39;101487.71;;;35.28;20.75
42511;BME280;28141;51.120;17.114;2023-05-10T17:22:57;101489.71;;;35.22;20.52
42511;BME280;28141;51.120;17.114;2023-05-10T17:26:11;101491.00;;;35.40;20.91
42511;BME280;28141;51.120;17.114;2023-05-10T17:29:26;101495.64;;;35.26;20.57
42511;BME280;28141;51.120;17.114;2023-05-10T17:33:10;101507.24;;;35.14;20.83
42511;BME280;28141;51.120;17.114;2023-05-10T17:36:23;101501.05;;;35.12;21.07
42511;BME280;28141;51.120;17.114;2023-05-10T17:39:37;101501.92;;;35.07;20.45
42511;BME280;28141;51.120;17.114;2023-05-10T17:42:51;101501.15;;;34.97;20.82
42511;BME280;28141;51.120;17.114;2023-05-10T17:46:34;101511.68;;;34.81;21.11
42511;BME280;28141;51.120;17.114;2023-05-10T17:49:48;101505.76;;;34.72;21.04